sensor_id;sensor_type;location;lat;lon;timestamp;temperature;humidity
71084;DHT22;58741;52.672;13.548;2023-04-03T00:01:31;0.80;92.60
71084;DHT22;58741;52.672;13.548;2023-04-03T00:03:57;0.80;92.70
71084;DHT22;58741;52.672;13.548;2023-04-03T00:06:23;0.80;92.70
71084;DHT22;58741;52.672;13.548;2023-04-03T00:08:49;0.80;92.70
71084;DHT22;58741;52.672;13.548;2023-04-03T00:11:15;0.70;92.70
71084;DHT22;58741;52.672;13.548;2023-04-03T00:13:42;0.70;92.90
71084;DHT22;58741;52.672;13.548;2023-04-03T00:16:08;0.70;92.80
71084;DHT22;58741;52.672;13.548;2023-04-03T00:18:35;0.70;92.70
71084;DHT22;58741;52.672;13.548;2023-04-03T00:21:01;0.60;93.00
71084;DHT22;58741;52.672;13.548;2023-04-03T00:23:27;0.60;93.10
71084;DHT22;58741;52.672;13.548;2023-04-03T00:25:53;0.60;93.00
71084;DHT22;58741;52.672;13.548;2023-04-03T00:28:19;0.60;93.10
71084;DHT22;58741;52.672;13.548;2023-04-03T00:30:44;0.50;93.00
71084;DHT22;58741;52.672;13.548;2023-04-03T00:33:13;0.50;92.70
71084;DHT22;58741;52.672;13.548;2023-04-03T00:35:39;0.50;92.70
71084;DHT22;58741;52.672;13.548;2023-04-03T00:38:06;0.40;92.80
71084;DHT22;58741;52.672;13.548;2023-04-03T00:40:39;0.40;92.80
71084;DHT22;58741;52.672;13.548;2023-04-03T00:43:23;0.40;93.30
71084;DHT22;58741;52.672;13.548;2023-04-03T00:45:54;0.40;93.10
71084;DHT22;58741;52.672;13.548;2023-04-03T00:48:46;0.30;93.00
71084;DHT22;58741;52.672;13.548;2023-04-03T00:51:24;0.30;92.80
71084;DHT22;58741;52.672;13.548;2023-04-03T00:53:59;0.20;92.80
71084;DHT22;58741;52.672;13.548;2023-04-03T00:56:28;0.20;92.60
71084;DHT22;58741;52.672;13.548;2023-04-03T00:59:02;0.20;92.80
71084;DHT22;58741;52.672;13.548;2023-04-03T01:01:29;0.10;92.70
71084;DHT22;58741;52.672;13.548;2023-04-03T01:03:57;0.10;92.70
71084;DHT22;58741;52.672;13.548;2023-04-03T01:06:28;0.10;92.70
71084;DHT22;58741;52.672;13.548;2023-04-03T01:08:59;0.00;92.80
71084;DHT22;58741;52.672;13.548;2023-04-03T01:11:25;0.00;93.00
71084;DHT22;58741;52.672;13.548;2023-04-03T01:13:52;-0.10;93.10
71084;DHT22;58741;52.672;13.548;2023-04-03T01:16:19;-0.10;93.10
71084;DHT22;58741;52.672;13.548;2023-04-03T01:18:46;-0.10;93.30
71084;DHT22;58741;52.672;13.548;2023-04-03T01:21:30;-0.20;93.20
71084;DHT22;58741;52.672;13.548;2023-04-03T01:26:32;-0.30;93.20
71084;DHT22;58741;52.672;13.548;2023-04-03T01:28:59;-0.30;93.50
71084;DHT22;58741;52.672;13.548;2023-04-03T01:31:26;-0.30;93.70
71084;DHT22;58741;52.672;13.548;2023-04-03T01:33:54;-0.40;93.70
71084;DHT22;58741;52.672;13.548;2023-04-03T01:36:26;-0.40;93.90
71084;DHT22;58741;52.672;13.548;2023-04-03T01:38:54;-0.50;93.70
71084;DHT22;58741;52.672;13.548;2023-04-03T01:41:20;-0.50;93.80
71084;DHT22;58741;52.672;13.548;2023-04-03T01:43:47;-0.50;93.80
71084;DHT22;58741;52.672;13.548;2023-04-03T01:46:14;-0.60;94.10
71084;DHT22;58741;52.672;13.548;2023-04-03T01:50:51;-0.60;94.50
71084;DHT22;58741;52.672;13.548;2023-04-03T01:53:17;-0.70;94.60
71084;DHT22;58741;52.672;13.548;2023-04-03T01:55:43;-0.70;94.60
71084;DHT22;58741;52.672;13.548;2023-04-03T01:58:09;-0.70;94.80
71084;DHT22;58741;52.672;13.548;2023-04-03T02:00:35;-0.80;94.70
71084;DHT22;58741;52.672;13.548;2023-04-03T02:03:02;-0.80;94.50
71084;DHT22;58741;52.672;13.548;2023-04-03T02:05:27;-0.80;94.60
71084;DHT22;58741;52.672;13.548;2023-04-03T02:07:53;-0.80;94.60
71084;DHT22;58741;52.672;13.548;2023-04-03T02:12:30;-0.90;94.30
71084;DHT22;58741;52.672;13.548;2023-04-03T02:14:57;-0.90;94.80
71084;DHT22;58741;52.672;13.548;2023-04-03T02:17:23;-1.00;94.90
71084;DHT22;58741;52.672;13.548;2023-04-03T02:19:48;-1.00;94.90
71084;DHT22;58741;52.672;13.548;2023-04-03T02:22:14;-1.00;95.10
71084;DHT22;58741;52.672;13.548;2023-04-03T02:24:39;-1.10;95.50
71084;DHT22;58741;52.672;13.548;2023-04-03T02:27:05;-1.10;95.60
71084;DHT22;58741;52.672;13.548;2023-04-03T02:29:31;-1.10;96.10
71084;DHT22;58741;52.672;13.548;2023-04-03T02:31:56;-1.10;96.10
71084;DHT22;58741;52.672;13.548;2023-04-03T02:34:23;-1.10;96.20
71084;DHT22;58741;52.672;13.548;2023-04-03T02:36:50;-1.10;96.40
71084;DHT22;58741;52.672;13.548;2023-04-03T02:39:18;-1.20;96.70
71084;DHT22;58741;52.672;13.548;2023-04-03T02:41:44;-1.20;96.80
71084;DHT22;58741;52.672;13.548;2023-04-03T02:44:15;-1.20;96.70
71084;DHT22;58741;52.672;13.548;2023-04-03T02:46:40;-1.20;96.90
71084;DHT22;58741;52.672;13.548;2023-04-03T02:49:06;-1.20;96.70
71084;DHT22;58741;52.672;13.548;2023-04-03T02:51:32;-1.20;96.90
71084;DHT22;58741;52.672;13.548;2023-04-03T02:53:58;-1.20;97.00
71084;DHT22;58741;52.672;13.548;2023-04-03T02:56:27;-1.30;97.10
71084;DHT22;58741;52.672;13.548;2023-04-03T02:58:53;-1.30;97.20
71084;DHT22;58741;52.672;13.548;2023-04-03T03:01:19;-1.30;97.50
71084;DHT22;58741;52.672;13.548;2023-04-03T03:03:45;-1.20;98.00
71084;DHT22;58741;52.672;13.548;2023-04-03T03:06:13;-1.30;97.60
71084;DHT22;58741;52.672;13.548;2023-04-03T03:08:39;-1.30;97.50
71084;DHT22;58741;52.672;13.548;2023-04-03T03:11:06;-1.30;97.50
71084;DHT22;58741;52.672;13.548;2023-04-03T03:13:33;-1.30;97.60
71084;DHT22;58741;52.672;13.548;2023-04-03T03:15:59;-1.30;97.50
71084;DHT22;58741;52.672;13.548;2023-04-03T03:18:24;-1.40;97.60
71084;DHT22;58741;52.672;13.548;2023-04-03T03:20:54;-1.30;97.70
71084;DHT22;58741;52.672;13.548;2023-04-03T03:23:22;-1.30;97.90
71084;DHT22;58741;52.672;13.548;2023-04-03T03:25:48;-1.40;97.90
71084;DHT22;58741;52.672;13.548;2023-04-03T03:28:14;-1.40;98.00
71084;DHT22;58741;52.672;13.548;2023-04-03T03:30:40;-1.40;98.00
71084;DHT22;58741;52.672;13.548;2023-04-03T03:33:05;-1.40;98.00
71084;DHT22;58741;52.672;13.548;2023-04-03T03:35:31;-1.40;98.30
71084;DHT22;58741;52.672;13.548;2023-04-03T03:37:56;-1.40;98.30
71084;DHT22;58741;52.672;13.548;2023-04-03T03:40:22;-1.40;98.30
71084;DHT22;58741;52.672;13.548;2023-04-03T03:42:48;-1.40;98.50
71084;DHT22;58741;52.672;13.548;2023-04-03T03:45:13;-1.40;98.50
71084;DHT22;58741;52.672;13.548;2023-04-03T03:47:40;-1.50;98.70
71084;DHT22;58741;52.672;13.548;2023-04-03T03:56:39;-1.50;98.80
71084;DHT22;58741;52.672;13.548;2023-04-03T04:01:17;-1.40;99.30
71084;DHT22;58741;52.672;13.548;2023-04-03T04:03:46;-1.40;99.70
71084;DHT22;58741;52.672;13.548;2023-04-03T04:06:16;-1.40;99.70
71084;DHT22;58741;52.672;13.548;2023-04-03T04:08:42;-1.40;99.80
71084;DHT22;58741;52.672;13.548;2023-04-03T04:11:10;-1.50;99.60
71084;DHT22;58741;52.672;13.548;2023-04-03T04:13:37;-1.40;99.70
71084;DHT22;58741;52.672;13.548;2023-04-03T04:16:03;-1.50;99.80
71084;DHT22;58741;52.672;13.548;2023-04-03T04:18:31;-1.40;99.80
71084;DHT22;58741;52.672;13.548;2023-04-03T04:20:56;-1.40;99.90
71084;DHT22;58741;52.672;13.548;2023-04-03T04:23:22;-1.40;99.90
71084;DHT22;58741;52.672;13.548;2023-04-03T04:25:50;-1.50;99.90
71084;DHT22;58741;52.672;13.548;2023-04-03T04:28:16;-1.50;99.90
71084;DHT22;58741;52.672;13.548;2023-04-03T04:30:43;-1.50;99.90
71084;DHT22;58741;52.672;13.548;2023-04-03T04:33:09;-1.50;99.90
71084;DHT22;58741;52.672;13.548;2023-04-03T04:35:35;-1.50;99.90
71084;DHT22;58741;52.672;13.548;2023-04-03T04:38:02;-1.40;99.90
71084;DHT22;58741;52.672;13.548;2023-04-03T04:40:28;-1.40;99.90
71084;DHT22;58741;52.672;13.548;2023-04-03T04:42:54;-1.40;99.90
71084;DHT22;58741;52.672;13.548;2023-04-03T04:45:20;-1.40;99.90
71084;DHT22;58741;52.672;13.548;2023-04-03T04:47:46;-1.40;99.90
71084;DHT22;58741;52.672;13.548;2023-04-03T04:50:12;-1.40;99.90
71084;DHT22;58741;52.672;13.548;2023-04-03T04:52:39;-1.40;99.90
71084;DHT22;58741;52.672;13.548;2023-04-03T04:55:06;-1.40;99.90
71084;DHT22;58741;52.672;13.548;2023-04-03T04:57:32;-1.40;99.90
71084;DHT22;58741;52.672;13.548;2023-04-03T04:59:59;-1.30;99.90
71084;DHT22;58741;52.672;13.548;2023-04-03T05:02:24;-1.30;99.90
71084;DHT22;58741;52.672;13.548;2023-04-03T05:04:50;-1.30;99.90
71084;DHT22;58741;52.672;13.548;2023-04-03T05:07:21;-1.30;99.90
71084;DHT22;58741;52.672;13.548;2023-04-03T05:09:46;-1.30;99.90
71084;DHT22;58741;52.672;13.548;2023-04-03T05:12:13;-1.30;99.90
71084;DHT22;58741;52.672;13.548;2023-04-03T05:14:45;-1.30;99.90
71084;DHT22;58741;52.672;13.548;2023-04-03T05:17:11;-1.30;99.90
71084;DHT22;58741;52.672;13.548;2023-04-03T05:19:40;-1.30;99.90
71084;DHT22;58741;52.672;13.548;2023-04-03T05:22:07;-1.30;99.90
71084;DHT22;58741;52.672;13.548;2023-04-03T05:24:34;-1.20;99.90
71084;DHT22;58741;52.672;13.548;2023-04-03T05:27:00;-1.20;99.90
71084;DHT22;58741;52.672;13.548;2023-04-03T05:29:27;-1.20;99.90
71084;DHT22;58741;52.672;13.548;2023-04-03T05:31:53;-1.20;99.90
71084;DHT22;58741;52.672;13.548;2023-04-03T05:34:19;-1.10;99.90
71084;DHT22;58741;52.672;13.548;2023-04-03T05:36:47;-1.10;99.90
71084;DHT22;58741;52.672;13.548;2023-04-03T05:39:14;-1.00;99.90
71084;DHT22;58741;52.672;13.548;2023-04-03T05:41:42;-1.00;99.90
71084;DHT22;58741;52.672;13.548;2023-04-03T05:44:08;-1.00;99.90
71084;DHT22;58741;52.672;13.548;2023-04-03T05:46:33;-0.90;99.90
71084;DHT22;58741;52.672;13.548;2023-04-03T05:49:03;-0.80;99.90
71084;DHT22;58741;52.672;13.548;2023-04-03T05:51:34;-0.70;99.90
71084;DHT22;58741;52.672;13.548;2023-04-03T05:56:40;-0.60;99.90
71084;DHT22;58741;52.672;13.548;2023-04-03T05:59:06;-0.50;99.90
71084;DHT22;58741;52.672;13.548;2023-04-03T06:01:33;-0.40;99.90
71084;DHT22;58741;52.672;13.548;2023-04-03T06:04:00;-0.40;99.90
71084;DHT22;58741;52.672;13.548;2023-04-03T06:06:25;-0.30;99.90
71084;DHT22;58741;52.672;13.548;2023-04-03T06:08:51;-0.20;99.90
71084;DHT22;58741;52.672;13.548;2023-04-03T06:11:17;-0.10;99.90
71084;DHT22;58741;52.672;13.548;2023-04-03T06:13:43;0.00;99.90
71084;DHT22;58741;52.672;13.548;2023-04-03T06:18:20;0.30;99.90
71084;DHT22;58741;52.672;13.548;2023-04-03T06:20:46;0.50;99.90
71084;DHT22;58741;52.672;13.548;2023-04-03T06:25:23;0.70;99.90
71084;DHT22;58741;52.672;13.548;2023-04-03T06:27:48;0.80;99.90
71084;DHT22;58741;52.672;13.548;2023-04-03T06:30:14;1.00;99.30
71084;DHT22;58741;52.672;13.548;2023-04-03T06:32:40;1.20;99.50
71084;DHT22;58741;52.672;13.548;2023-04-03T06:35:06;1.40;99.10
71084;DHT22;58741;52.672;13.548;2023-04-03T06:37:32;1.50;98.60
71084;DHT22;58741;52.672;13.548;2023-04-03T06:39:58;1.70;98.40
71084;DHT22;58741;52.672;13.548;2023-04-03T06:42:25;1.90;98.20
71084;DHT22;58741;52.672;13.548;2023-04-03T06:44:57;2.00;97.60
71084;DHT22;58741;52.672;13.548;2023-04-03T06:47:23;2.20;96.70
71084;DHT22;58741;52.672;13.548;2023-04-03T06:49:49;2.40;95.80
71084;DHT22;58741;52.672;13.548;2023-04-03T06:52:14;2.60;95.70
71084;DHT22;58741;52.672;13.548;2023-04-03T06:54:40;2.70;95.70
71084;DHT22;58741;52.672;13.548;2023-04-03T06:57:06;2.90;95.20
71084;DHT22;58741;52.672;13.548;2023-04-03T06:59:32;3.00;94.80
71084;DHT22;58741;52.672;13.548;2023-04-03T07:01:57;3.10;93.80
71084;DHT22;58741;52.672;13.548;2023-04-03T07:04:25;3.20;92.70
71084;DHT22;58741;52.672;13.548;2023-04-03T07:06:50;3.20;92.20
71084;DHT22;58741;52.672;13.548;2023-04-03T07:09:17;3.30;92.20
71084;DHT22;58741;52.672;13.548;2023-04-03T07:11:44;3.30;92.50
71084;DHT22;58741;52.672;13.548;2023-04-03T07:14:10;3.30;92.30
71084;DHT22;58741;52.672;13.548;2023-04-03T07:16:35;3.40;92.50
71084;DHT22;58741;52.672;13.548;2023-04-03T07:19:01;3.50;92.40
71084;DHT22;58741;52.672;13.548;2023-04-03T07:21:28;3.60;92.30
71084;DHT22;58741;52.672;13.548;2023-04-03T07:23:54;3.80;92.40
71084;DHT22;58741;52.672;13.548;2023-04-03T07:26:20;4.00;91.70
71084;DHT22;58741;52.672;13.548;2023-04-03T07:28:47;4.30;91.70
71084;DHT22;58741;52.672;13.548;2023-04-03T07:31:14;4.40;91.80
71084;DHT22;58741;52.672;13.548;2023-04-03T07:33:41;4.60;91.30
71084;DHT22;58741;52.672;13.548;2023-04-03T07:36:07;4.70;90.20
71084;DHT22;58741;52.672;13.548;2023-04-03T07:38:34;4.70;88.50
71084;DHT22;58741;52.672;13.548;2023-04-03T07:41:01;4.80;85.90
71084;DHT22;58741;52.672;13.548;2023-04-03T07:43:27;4.80;86.40
71084;DHT22;58741;52.672;13.548;2023-04-03T07:45:53;4.90;85.60
71084;DHT22;58741;52.672;13.548;2023-04-03T07:48:23;4.90;83.20
71084;DHT22;58741;52.672;13.548;2023-04-03T07:50:50;5.00;85.70
71084;DHT22;58741;52.672;13.548;2023-04-03T07:53:16;5.10;85.30
71084;DHT22;58741;52.672;13.548;2023-04-03T07:55:42;5.20;84.40
71084;DHT22;58741;52.672;13.548;2023-04-03T07:58:12;5.30;82.90
71084;DHT22;58741;52.672;13.548;2023-04-03T08:00:39;5.30;82.60
71084;DHT22;58741;52.672;13.548;2023-04-03T08:03:06;5.50;81.20
71084;DHT22;58741;52.672;13.548;2023-04-03T08:05:31;5.50;79.10
71084;DHT22;58741;52.672;13.548;2023-04-03T08:08:01;5.50;80.10
71084;DHT22;58741;52.672;13.548;2023-04-03T08:10:26;5.40;80.60
71084;DHT22;58741;52.672;13.548;2023-04-03T08:12:52;5.60;81.10
71084;DHT22;58741;52.672;13.548;2023-04-03T08:15:17;5.70;80.80
71084;DHT22;58741;52.672;13.548;2023-04-03T08:17:43;5.80;79.70
71084;DHT22;58741;52.672;13.548;2023-04-03T08:20:10;6.00;76.80
71084;DHT22;58741;52.672;13.548;2023-04-03T08:22:36;6.20;78.30
71084;DHT22;58741;52.672;13.548;2023-04-03T08:25:01;6.30;77.60
71084;DHT22;58741;52.672;13.548;2023-04-03T08:27:27;6.50;76.20
71084;DHT22;58741;52.672;13.548;2023-04-03T08:29:54;6.40;74.30
71084;DHT22;58741;52.672;13.548;2023-04-03T08:32:20;6.50;74.80
71084;DHT22;58741;52.672;13.548;2023-04-03T08:34:45;6.50;75.30
71084;DHT22;58741;52.672;13.548;2023-04-03T08:37:11;6.50;72.00
71084;DHT22;58741;52.672;13.548;2023-04-03T08:39:37;6.40;71.40
71084;DHT22;58741;52.672;13.548;2023-04-03T08:42:16;6.40;72.20
71084;DHT22;58741;52.672;13.548;2023-04-03T08:44:46;6.40;71.60
71084;DHT22;58741;52.672;13.548;2023-04-03T08:47:27;6.30;72.10
71084;DHT22;58741;52.672;13.548;2023-04-03T08:49:59;6.30;73.90
71084;DHT22;58741;52.672;13.548;2023-04-03T08:52:38;6.40;72.30
71084;DHT22;58741;52.672;13.548;2023-04-03T08:55:13;6.50;72.20
71084;DHT22;58741;52.672;13.548;2023-04-03T08:57:44;6.50;71.70
71084;DHT22;58741;52.672;13.548;2023-04-03T09:02:45;6.60;72.30
71084;DHT22;58741;52.672;13.548;2023-04-03T09:08:07;6.50;72.00
71084;DHT22;58741;52.672;13.548;2023-04-03T09:10:38;6.40;72.10
71084;DHT22;58741;52.672;13.548;2023-04-03T09:13:13;6.30;71.70
71084;DHT22;58741;52.672;13.548;2023-04-03T09:15:44;6.30;71.10
71084;DHT22;58741;52.672;13.548;2023-04-03T09:20:54;6.40;70.30
71084;DHT22;58741;52.672;13.548;2023-04-03T09:26:23;6.50;70.90
71084;DHT22;58741;52.672;13.548;2023-04-03T09:28:53;6.50;71.10
71084;DHT22;58741;52.672;13.548;2023-04-03T09:31:25;6.50;68.80
71084;DHT22;58741;52.672;13.548;2023-04-03T09:33:54;6.50;70.50
71084;DHT22;58741;52.672;13.548;2023-04-03T09:36:58;6.60;70.90
71084;DHT22;58741;52.672;13.548;2023-04-03T09:39:27;6.90;68.90
71084;DHT22;58741;52.672;13.548;2023-04-03T09:42:20;7.10;70.60
71084;DHT22;58741;52.672;13.548;2023-04-03T09:44:57;7.20;70.20
71084;DHT22;58741;52.672;13.548;2023-04-03T09:47:30;7.20;68.30
71084;DHT22;58741;52.672;13.548;2023-04-03T09:50:21;7.20;69.10
71084;DHT22;58741;52.672;13.548;2023-04-03T09:52:49;7.30;69.50
71084;DHT22;58741;52.672;13.548;2023-04-03T09:55:20;7.40;65.90
71084;DHT22;58741;52.672;13.548;2023-04-03T09:57:54;7.30;67.50
71084;DHT22;58741;52.672;13.548;2023-04-03T10:00:25;7.30;68.30
71084;DHT22;58741;52.672;13.548;2023-04-03T10:02:54;7.40;68.60
71084;DHT22;58741;52.672;13.548;2023-04-03T10:05:34;7.50;68.90
71084;DHT22;58741;52.672;13.548;2023-04-03T10:10:45;7.80;66.30
71084;DHT22;58741;52.672;13.548;2023-04-03T10:13:13;8.00;67.00
71084;DHT22;58741;52.672;13.548;2023-04-03T10:16:10;8.10;66.50
71084;DHT22;58741;52.672;13.548;2023-04-03T10:18:44;8.20;66.00
71084;DHT22;58741;52.672;13.548;2023-04-03T10:24:12;8.20;65.80
71084;DHT22;58741;52.672;13.548;2023-04-03T10:27:07;8.20;64.30
71084;DHT22;58741;52.672;13.548;2023-04-03T10:29:40;8.20;64.40
71084;DHT22;58741;52.672;13.548;2023-04-03T10:35:37;8.10;64.00
71084;DHT22;58741;52.672;13.548;2023-04-03T10:40:55;8.10;63.70
71084;DHT22;58741;52.672;13.548;2023-04-03T10:43:52;8.00;65.50
71084;DHT22;58741;52.672;13.548;2023-04-03T10:46:49;7.90;61.80
71084;DHT22;58741;52.672;13.548;2023-04-03T10:49:36;7.80;65.50
71084;DHT22;58741;52.672;13.548;2023-04-03T10:55:06;7.80;65.20
71084;DHT22;58741;52.672;13.548;2023-04-03T10:57:32;7.70;65.70
71084;DHT22;58741;52.672;13.548;2023-04-03T11:00:05;7.60;66.20
71084;DHT22;58741;52.672;13.548;2023-04-03T11:07:55;7.60;64.60
71084;DHT22;58741;52.672;13.548;2023-04-03T11:10:35;7.50;66.10
71084;DHT22;58741;52.672;13.548;2023-04-03T11:15:54;7.50;66.10
71084;DHT22;58741;52.672;13.548;2023-04-03T11:18:42;7.40;67.20
71084;DHT22;58741;52.672;13.548;2023-04-03T11:23:45;7.50;65.70
71084;DHT22;58741;52.672;13.548;2023-04-03T11:26:14;7.40;65.00
71084;DHT22;58741;52.672;13.548;2023-04-03T11:28:41;7.40;66.50
71084;DHT22;58741;52.672;13.548;2023-04-03T11:31:24;7.30;66.50
71084;DHT22;58741;52.672;13.548;2023-04-03T11:36:24;7.30;66.60
71084;DHT22;58741;52.672;13.548;2023-04-03T11:38:57;7.30;66.30
71084;DHT22;58741;52.672;13.548;2023-04-03T11:41:31;7.30;66.10
71084;DHT22;58741;52.672;13.548;2023-04-03T11:44:12;7.40;66.90
71084;DHT22;58741;52.672;13.548;2023-04-03T11:46:55;7.40;66.90
71084;DHT22;58741;52.672;13.548;2023-04-03T11:49:56;7.30;66.80
71084;DHT22;58741;52.672;13.548;2023-04-03T12:03:32;7.30;67.30
71084;DHT22;58741;52.672;13.548;2023-04-03T12:13:35;7.70;68.80
71084;DHT22;58741;52.672;13.548;2023-04-03T12:16:02;7.80;68.30
71084;DHT22;58741;52.672;13.548;2023-04-03T12:32:25;8.10;65.40
71084;DHT22;58741;52.672;13.548;2023-04-03T12:38:22;8.00;65.80
71084;DHT22;58741;52.672;13.548;2023-04-03T12:44:17;7.90;66.40
71084;DHT22;58741;52.672;13.548;2023-04-03T12:46:48;7.80;65.00
71084;DHT22;58741;52.672;13.548;2023-04-03T12:51:51;7.70;66.20
71084;DHT22;58741;52.672;13.548;2023-04-03T12:54:26;7.70;65.80
71084;DHT22;58741;52.672;13.548;2023-04-03T12:56:52;7.60;65.60
71084;DHT22;58741;52.672;13.548;2023-04-03T12:59:33;7.60;66.00
71084;DHT22;58741;52.672;13.548;2023-04-03T13:02:00;7.60;66.30
71084;DHT22;58741;52.672;13.548;2023-04-03T13:04:31;7.60;66.50
71084;DHT22;58741;52.672;13.548;2023-04-03T13:06:57;7.60;67.30
71084;DHT22;58741;52.672;13.548;2023-04-03T13:09:33;7.60;65.20
71084;DHT22;58741;52.672;13.548;2023-04-03T13:12:15;7.60;65.30
71084;DHT22;58741;52.672;13.548;2023-04-03T13:14:55;7.50;65.70
71084;DHT22;58741;52.672;13.548;2023-04-03T13:17:22;7.40;66.10
71084;DHT22;58741;52.672;13.548;2023-04-03T13:19:48;7.40;65.20
71084;DHT22;58741;52.672;13.548;2023-04-03T13:24:50;7.20;66.50
71084;DHT22;58741;52.672;13.548;2023-04-03T13:27:17;7.20;66.90
71084;DHT22;58741;52.672;13.548;2023-04-03T13:29:45;7.20;67.20
71084;DHT22;58741;52.672;13.548;2023-04-03T13:32:22;7.10;67.30
71084;DHT22;58741;52.672;13.548;2023-04-03T13:34:48;7.10;67.60
71084;DHT22;58741;52.672;13.548;2023-04-03T13:37:26;7.00;67.80
71084;DHT22;58741;52.672;13.548;2023-04-03T13:40:08;6.90;67.50
71084;DHT22;58741;52.672;13.548;2023-04-03T13:42:38;6.90;68.10
71084;DHT22;58741;52.672;13.548;2023-04-03T13:45:18;6.90;68.90
71084;DHT22;58741;52.672;13.548;2023-04-03T13:47:46;7.00;68.90
71084;DHT22;58741;52.672;13.548;2023-04-03T13:52:46;7.00;69.40
71084;DHT22;58741;52.672;13.548;2023-04-03T13:55:29;7.10;69.20
71084;DHT22;58741;52.672;13.548;2023-04-03T14:00:39;7.10;69.60
71084;DHT22;58741;52.672;13.548;2023-04-03T14:03:19;7.20;71.30
71084;DHT22;58741;52.672;13.548;2023-04-03T14:05:46;7.40;71.00
71084;DHT22;58741;52.672;13.548;2023-04-03T14:08:11;7.50;70.30
71084;DHT22;58741;52.672;13.548;2023-04-03T14:10:37;7.70;69.10
71084;DHT22;58741;52.672;13.548;2023-04-03T14:13:04;7.70;69.00
71084;DHT22;58741;52.672;13.548;2023-04-03T14:15:31;7.70;68.20
71084;DHT22;58741;52.672;13.548;2023-04-03T14:17:57;7.60;68.20
71084;DHT22;58741;52.672;13.548;2023-04-03T14:20:25;7.60;67.20
71084;DHT22;58741;52.672;13.548;2023-04-03T14:22:52;7.50;68.00
71084;DHT22;58741;52.672;13.548;2023-04-03T14:25:20;7.40;68.50
71084;DHT22;58741;52.672;13.548;2023-04-03T14:27:47;7.30;68.50
71084;DHT22;58741;52.672;13.548;2023-04-03T14:30:26;7.20;68.30
71084;DHT22;58741;52.672;13.548;2023-04-03T14:32:52;7.10;69.10
71084;DHT22;58741;52.672;13.548;2023-04-03T14:35:18;7.00;68.80
71084;DHT22;58741;52.672;13.548;2023-04-03T14:37:44;6.90;69.20
71084;DHT22;58741;52.672;13.548;2023-04-03T14:40:37;6.80;69.40
71084;DHT22;58741;52.672;13.548;2023-04-03T14:43:02;6.80;69.80
71084;DHT22;58741;52.672;13.548;2023-04-03T14:45:28;6.70;69.50
71084;DHT22;58741;52.672;13.548;2023-04-03T14:47:55;6.60;69.80
71084;DHT22;58741;52.672;13.548;2023-04-03T14:50:24;6.50;70.10
71084;DHT22;58741;52.672;13.548;2023-04-03T14:52:53;6.40;70.50
71084;DHT22;58741;52.672;13.548;2023-04-03T14:55:20;6.40;70.80
71084;DHT22;58741;52.672;13.548;2023-04-03T14:57:46;6.30;71.00
71084;DHT22;58741;52.672;13.548;2023-04-03T15:00:15;6.20;71.20
71084;DHT22;58741;52.672;13.548;2023-04-03T15:02:41;6.20;71.20
71084;DHT22;58741;52.672;13.548;2023-04-03T15:05:09;6.10;71.20
71084;DHT22;58741;52.672;13.548;2023-04-03T15:07:37;6.10;72.00
71084;DHT22;58741;52.672;13.548;2023-04-03T15:10:18;6.00;72.30
71084;DHT22;58741;52.672;13.548;2023-04-03T15:12:45;6.00;72.10
71084;DHT22;58741;52.672;13.548;2023-04-03T15:15:13;6.00;71.80
71084;DHT22;58741;52.672;13.548;2023-04-03T15:17:39;6.00;72.50
71084;DHT22;58741;52.672;13.548;2023-04-03T15:20:20;6.00;72.20
71084;DHT22;58741;52.672;13.548;2023-04-03T15:22:46;6.00;72.60
71084;DHT22;58741;52.672;13.548;2023-04-03T15:25:12;6.00;72.50
71084;DHT22;58741;52.672;13.548;2023-04-03T15:27:38;5.90;72.10
71084;DHT22;58741;52.672;13.548;2023-04-03T15:30:06;5.90;71.10
71084;DHT22;58741;52.672;13.548;2023-04-03T15:32:32;6.00;83.10
71084;DHT22;58741;52.672;13.548;2023-04-03T15:35:00;6.50;88.00
71084;DHT22;58741;52.672;13.548;2023-04-03T15:37:25;7.30;84.70
71084;DHT22;58741;52.672;13.548;2023-04-03T15:39:51;8.10;80.60
71084;DHT22;58741;52.672;13.548;2023-04-03T15:42:17;8.80;78.00
71084;DHT22;58741;52.672;13.548;2023-04-03T15:44:42;9.70;76.30
71084;DHT22;58741;52.672;13.548;2023-04-03T15:47:08;10.50;73.20
71084;DHT22;58741;52.672;13.548;2023-04-03T15:49:34;11.40;71.10
71084;DHT22;58741;52.672;13.548;2023-04-03T15:52:00;12.00;64.50
71084;DHT22;58741;52.672;13.548;2023-04-03T15:54:27;12.20;57.50
71084;DHT22;58741;52.672;13.548;2023-04-03T15:56:55;12.00;58.00
71084;DHT22;58741;52.672;13.548;2023-04-03T15:59:20;11.70;59.40
71084;DHT22;58741;52.672;13.548;2023-04-03T16:01:46;11.30;58.50
71084;DHT22;58741;52.672;13.548;2023-04-03T16:04:12;10.90;58.80
71084;DHT22;58741;52.672;13.548;2023-04-03T16:06:38;10.40;60.20
71084;DHT22;58741;52.672;13.548;2023-04-03T16:09:04;9.90;60.20
71084;DHT22;58741;52.672;13.548;2023-04-03T16:11:30;9.50;61.20
71084;DHT22;58741;52.672;13.548;2023-04-03T16:13:55;9.10;61.70
71084;DHT22;58741;52.672;13.548;2023-04-03T16:16:23;8.80;62.70
71084;DHT22;58741;52.672;13.548;2023-04-03T16:18:49;8.60;63.90
71084;DHT22;58741;52.672;13.548;2023-04-03T16:21:16;8.30;63.60
71084;DHT22;58741;52.672;13.548;2023-04-03T16:23:43;8.00;64.50
71084;DHT22;58741;52.672;13.548;2023-04-03T16:26:10;7.80;65.20
71084;DHT22;58741;52.672;13.548;2023-04-03T16:28:35;7.60;65.30
71084;DHT22;58741;52.672;13.548;2023-04-03T16:31:01;7.40;66.30
71084;DHT22;58741;52.672;13.548;2023-04-03T16:33:27;7.20;66.80
71084;DHT22;58741;52.672;13.548;2023-04-03T16:35:53;7.10;67.10
71084;DHT22;58741;52.672;13.548;2023-04-03T16:38:19;6.90;68.60
71084;DHT22;58741;52.672;13.548;2023-04-03T16:40:45;6.80;68.30
71084;DHT22;58741;52.672;13.548;2023-04-03T16:43:11;6.70;68.30
71084;DHT22;58741;52.672;13.548;2023-04-03T16:45:37;6.60;68.50
71084;DHT22;58741;52.672;13.548;2023-04-03T16:48:02;6.50;69.20
71084;DHT22;58741;52.672;13.548;2023-04-03T16:50:28;6.40;69.50
71084;DHT22;58741;52.672;13.548;2023-04-03T16:52:54;6.30;69.50
71084;DHT22;58741;52.672;13.548;2023-04-03T16:55:19;6.20;69.90
71084;DHT22;58741;52.672;13.548;2023-04-03T16:57:46;6.20;70.00
71084;DHT22;58741;52.672;13.548;2023-04-03T17:00:12;6.10;70.20
71084;DHT22;58741;52.672;13.548;2023-04-03T17:02:39;6.00;70.90
71084;DHT22;58741;52.672;13.548;2023-04-03T17:05:04;5.90;71.00
71084;DHT22;58741;52.672;13.548;2023-04-03T17:07:30;5.90;71.40
71084;DHT22;58741;52.672;13.548;2023-04-03T17:09:56;5.80;71.80
71084;DHT22;58741;52.672;13.548;2023-04-03T17:12:22;5.70;72.10
71084;DHT22;58741;52.672;13.548;2023-04-03T17:14:47;5.60;72.20
71084;DHT22;58741;52.672;13.548;2023-04-03T17:17:20;5.50;72.50
71084;DHT22;58741;52.672;13.548;2023-04-03T17:19:46;5.40;72.60
71084;DHT22;58741;52.672;13.548;2023-04-03T17:22:12;5.40;72.70
71084;DHT22;58741;52.672;13.548;2023-04-03T17:24:38;5.30;73.10
71084;DHT22;58741;52.672;13.548;2023-04-03T17:27:03;5.30;73.50